sensor_id;sensor_type;location;lat;lon;timestamp;pressure;altitude;pressure_sealevel;temperature;humidity
61676;BME280;47574;52.090;5.244;2024-03-08T00:00:37;101901.0;;;9.93;51.43
61676;BME280;47574;52.090;5.244;2024-03-08T00:02:13;101893.0;;;9.82;51.53
61676;BME280;47574;52.090;5.244;2024-03-08T00:05:25;101895.0;;;9.78;51.65
61676;BME280;47574;52.090;5.244;2024-03-08T00:07:01;101891.0;;;9.56;51.96
61676;BME280;47574;52.090;5.244;2024-03-08T00:08:38;101889.0;;;9.66;51.83
61676;BME280;47574;52.090;5.244;2024-03-08T00:10:15;101890.0;;;9.81;51.59
61676;BME280;47574;52.090;5.244;2024-03-08T00:13:27;101891.0;;;9.73;51.53
61676;BME280;47574;52.090;5.244;2024-03-08T00:15:03;101887.0;;;9.78;51.36
61676;BME280;47574;52.090;5.244;2024-03-08T00:16:40;101881.0;;;9.67;51.63
61676;BME280;47574;52.090;5.244;2024-03-08T00:19:52;101883.0;;;9.73;51.37
61676;BME280;47574;52.090;5.244;2024-03-08T00:21:28;101882.0;;;9.65;51.46
61676;BME280;47574;52.090;5.244;2024-03-08T00:23:04;101882.0;;;9.75;51.15
61676;BME280;47574;52.090;5.244;2024-03-08T00:26:16;101877.0;;;9.66;51.48
61676;BME280;47574;52.090;5.244;2024-03-08T00:27:52;101877.0;;;9.58;51.7
61676;BME280;47574;52.090;5.244;2024-03-08T00:29:28;101876.0;;;9.59;51.52
61676;BME280;47574;52.090;5.244;2024-03-08T00:31:05;101875.0;;;9.6;51.4
61676;BME280;47574;52.090;5.244;2024-03-08T00:34:17;101870.0;;;9.64;51.32
61676;BME280;47574;52.090;5.244;2024-03-08T00:35:53;101875.0;;;9.64;51.53
61676;BME280;47574;52.090;5.244;2024-03-08T00:37:29;101870.0;;;9.67;51.15
61676;BME280;47574;52.090;5.244;2024-03-08T00:40:41;101866.0;;;9.67;51.23
61676;BME280;47574;52.090;5.244;2024-03-08T00:42:18;101866.0;;;9.65;51.12
61676;BME280;47574;52.090;5.244;2024-03-08T00:43:54;101867.0;;;9.48;51.34
61676;BME280;47574;52.090;5.244;2024-03-08T00:47:07;101866.0;;;9.43;51.29
61676;BME280;47574;52.090;5.244;2024-03-08T00:48:43;101868.0;;;9.36;51.58
61676;BME280;47574;52.090;5.244;2024-03-08T00:50:20;101859.0;;;9.57;51.18
61676;BME280;47574;52.090;5.244;2024-03-08T00:53:32;101855.0;;;9.38;51.34
61676;BME280;47574;52.090;5.244;2024-03-08T00:55:08;101852.0;;;9.4;51.2
61676;BME280;47574;52.090;5.244;2024-03-08T00:56:44;101849.0;;;9.48;51.2
61676;BME280;47574;52.090;5.244;2024-03-08T00:58:20;101846.0;;;9.42;51.33
61676;BME280;47574;52.090;5.244;2024-03-08T01:01:33;101845.0;;;9.59;50.79
61676;BME280;47574;52.090;5.244;2024-03-08T01:03:09;101835.0;;;9.39;51.12
61676;BME280;47574;52.090;5.244;2024-03-08T01:04:45;101835.0;;;9.38;51.24
61676;BME280;47574;52.090;5.244;2024-03-08T01:07:57;101832.0;;;9.36;51.17
61676;BME280;47574;52.090;5.244;2024-03-08T01:09:33;101828.0;;;9.28;51.32
61676;BME280;47574;52.090;5.244;2024-03-08T01:11:09;101828.0;;;9.33;51.23
61676;BME280;47574;52.090;5.244;2024-03-08T01:14:22;101824.0;;;9.23;51.26
61676;BME280;47574;52.090;5.244;2024-03-08T01:15:58;101821.0;;;9.22;51.43
61676;BME280;47574;52.090;5.244;2024-03-08T01:17:34;101818.0;;;9.1;51.6
61676;BME280;47574;52.090;5.244;2024-03-08T01:19:11;101812.0;;;9.22;51.44
61676;BME280;47574;52.090;5.244;2024-03-08T01:22:23;101812.0;;;9.22;51.21
61676;BME280;47574;52.090;5.244;2024-03-08T01:24:00;101809.0;;;9.23;51.17
61676;BME280;47574;52.090;5.244;2024-03-08T01:25:36;101805.0;;;9.1;51.51
61676;BME280;47574;52.090;5.244;2024-03-08T01:28:49;101805.0;;;9.11;51.45
61676;BME280;47574;52.090;5.244;2024-03-08T01:30:25;101805.0;;;8.98;51.65
61676;BME280;47574;52.090;5.244;2024-03-08T01:32:01;101794.0;;;8.96;51.84
61676;BME280;47574;52.090;5.244;2024-03-08T01:35:13;101796.0;;;8.97;51.66
61676;BME280;47574;52.090;5.244;2024-03-08T01:36:50;101791.0;;;9.08;51.43
61676;BME280;47574;52.090;5.244;2024-03-08T01:38:26;101790.0;;;9.07;51.25
61676;BME280;47574;52.090;5.244;2024-03-08T01:41:38;101787.0;;;9.09;51.16
61676;BME280;47574;52.090;5.244;2024-03-08T01:43:18;101786.0;;;9.06;51.17
61676;BME280;47574;52.090;5.244;2024-03-08T01:44:54;101782.0;;;9.09;51.2
61676;BME280;47574;52.090;5.244;2024-03-08T01:46:31;101785.0;;;9.01;51.19
61676;BME280;47574;52.090;5.244;2024-03-08T01:49:43;101782.0;;;9.07;51.03
61676;BME280;47574;52.090;5.244;2024-03-08T01:51:20;101776.0;;;9.07;51.09
61676;BME280;47574;52.090;5.244;2024-03-08T01:52:57;101773.0;;;8.96;51.14
61676;BME280;47574;52.090;5.244;2024-03-08T01:56:11;101777.0;;;8.91;51.3
61676;BME280;47574;52.090;5.244;2024-03-08T01:57:47;101775.0;;;8.89;51.14
61676;BME280;47574;52.090;5.244;2024-03-08T01:59:23;101775.0;;;8.76;51.44
61676;BME280;47574;52.090;5.244;2024-03-08T02:02:42;101778.0;;;8.94;51.21
61676;BME280;47574;52.090;5.244;2024-03-08T02:04:18;101773.0;;;8.77;51.52
61676;BME280;47574;52.090;5.244;2024-03-08T02:05:54;101771.0;;;8.8;51.44
61676;BME280;47574;52.090;5.244;2024-03-08T02:07:30;101770.0;;;8.82;51.37
61676;BME280;47574;52.090;5.244;2024-03-08T02:10:44;101768.0;;;8.73;51.43
61676;BME280;47574;52.090;5.244;2024-03-08T02:12:21;101765.0;;;8.72;51.34
61676;BME280;47574;52.090;5.244;2024-03-08T02:13:57;101766.0;;;8.65;51.36
61676;BME280;47574;52.090;5.244;2024-03-08T02:17:38;101757.0;;;8.69;51.41
61676;BME280;47574;52.090;5.244;2024-03-08T02:19:14;101758.0;;;8.81;51.17
61676;BME280;47574;52.090;5.244;2024-03-08T02:20:51;101755.0;;;8.61;51.44
61676;BME280;47574;52.090;5.244;2024-03-08T02:22:28;101751.0;;;8.6;51.38
61676;BME280;47574;52.090;5.244;2024-03-08T02:24:06;101748.0;;;8.78;51.02
61676;BME280;47574;52.090;5.244;2024-03-08T02:27:23;101742.0;;;8.72;51.06
61676;BME280;47574;52.090;5.244;2024-03-08T02:28:59;101742.0;;;8.71;50.88
61676;BME280;47574;52.090;5.244;2024-03-08T02:30:35;101740.0;;;8.64;51.05
61676;BME280;47574;52.090;5.244;2024-03-08T02:35:23;101737.0;;;8.52;51.16
61676;BME280;47574;52.090;5.244;2024-03-08T02:36:59;101736.0;;;8.48;51.26
61676;BME280;47574;52.090;5.244;2024-03-08T02:40:12;101735.0;;;8.45;51.2
61676;BME280;47574;52.090;5.244;2024-03-08T02:41:47;101726.0;;;8.67;50.75
61676;BME280;47574;52.090;5.244;2024-03-08T02:43:23;101724.0;;;8.52;50.91
61676;BME280;47574;52.090;5.244;2024-03-08T02:45:00;101724.0;;;8.49;50.99
61676;BME280;47574;52.090;5.244;2024-03-08T02:48:13;101717.0;;;8.44;51.11
61676;BME280;47574;52.090;5.244;2024-03-08T02:49:50;101717.0;;;8.45;50.99
61676;BME280;47574;52.090;5.244;2024-03-08T02:51:26;101716.0;;;8.43;50.94
61676;BME280;47574;52.090;5.244;2024-03-08T02:54:39;101708.0;;;8.42;50.83
61676;BME280;47574;52.090;5.244;2024-03-08T02:56:15;101711.0;;;8.52;50.68
61676;BME280;47574;52.090;5.244;2024-03-08T02:57:52;101710.0;;;8.27;51.09
61676;BME280;47574;52.090;5.244;2024-03-08T03:01:04;101707.0;;;8.39;50.77
61676;BME280;47574;52.090;5.244;2024-03-08T03:02:40;101709.0;;;8.35;50.77
61676;BME280;47574;52.090;5.244;2024-03-08T03:04:16;101708.0;;;8.3;50.85
61676;BME280;47574;52.090;5.244;2024-03-08T03:07:28;101702.0;;;8.35;50.76
61676;BME280;47574;52.090;5.244;2024-03-08T03:09:04;101705.0;;;8.44;50.57
61676;BME280;47574;52.090;5.244;2024-03-08T03:10:40;101701.0;;;8.45;50.46
61676;BME280;47574;52.090;5.244;2024-03-08T03:12:16;101696.0;;;8.23;50.92
61676;BME280;47574;52.090;5.244;2024-03-08T03:15:28;101693.0;;;8.24;50.81
61676;BME280;47574;52.090;5.244;2024-03-08T03:17:05;101694.0;;;8.42;50.36
61676;BME280;47574;52.090;5.244;2024-03-08T03:18:41;101689.0;;;8.32;50.58
61676;BME280;47574;52.090;5.244;2024-03-08T03:21:54;101689.0;;;8.24;50.56
61676;BME280;47574;52.090;5.244;2024-03-08T03:23:30;101688.0;;;8.26;50.52
61676;BME280;47574;52.090;5.244;2024-03-08T03:25:07;101686.0;;;8.32;50.49
61676;BME280;47574;52.090;5.244;2024-03-08T03:28:19;101683.0;;;8.23;50.47
61676;BME280;47574;52.090;5.244;2024-03-08T03:29:56;101683.0;;;8.28;50.4
61676;BME280;47574;52.090;5.244;2024-03-08T03:31:33;101681.0;;;8.18;50.53
61676;BME280;47574;52.090;5.244;2024-03-08T03:33:09;101677.0;;;8.18;50.64
61676;BME280;47574;52.090;5.244;2024-03-08T03:36:21;101678.0;;;8.15;50.76
61676;BME280;47574;52.090;5.244;2024-03-08T03:37:57;101676.0;;;8.05;50.74
61676;BME280;47574;52.090;5.244;2024-03-08T03:39:33;101674.0;;;8.03;50.75
61676;BME280;47574;52.090;5.244;2024-03-08T03:42:45;101672.0;;;8.0;50.69
61676;BME280;47574;52.090;5.244;2024-03-08T03:44:21;101667.0;;;8.09;50.3
61676;BME280;47574;52.090;5.244;2024-03-08T03:45:57;101668.0;;;8.18;50.45
61676;BME280;47574;52.090;5.244;2024-03-08T03:49:10;101663.0;;;8.17;50.25
61676;BME280;47574;52.090;5.244;2024-03-08T03:50:46;101666.0;;;8.14;50.38
61676;BME280;47574;52.090;5.244;2024-03-08T03:52:22;101665.0;;;8.06;50.34
61676;BME280;47574;52.090;5.244;2024-03-08T03:55:34;101665.0;;;8.06;50.25
61676;BME280;47574;52.090;5.244;2024-03-08T03:57:10;101659.0;;;7.98;50.32
61676;BME280;47574;52.090;5.244;2024-03-08T03:58:46;101658.0;;;8.16;50.02
61676;BME280;47574;52.090;5.244;2024-03-08T04:00:22;101660.0;;;8.02;50.1
61676;BME280;47574;52.090;5.244;2024-03-08T04:03:35;101657.0;;;8.07;49.85
61676;BME280;47574;52.090;5.244;2024-03-08T04:05:11;101661.0;;;8.03;50.1
61676;BME280;47574;52.090;5.244;2024-03-08T04:06:47;101656.0;;;7.97;50.21
61676;BME280;47574;52.090;5.244;2024-03-08T04:09:59;101655.0;;;8.14;49.91
61676;BME280;47574;52.090;5.244;2024-03-08T04:11:35;101656.0;;;8.1;49.77
61676;BME280;47574;52.090;5.244;2024-03-08T04:13:11;101655.0;;;7.94;50.05
61676;BME280;47574;52.090;5.244;2024-03-08T04:16:23;101652.0;;;8.16;49.66
61676;BME280;47574;52.090;5.244;2024-03-08T04:17:59;101651.0;;;8.03;49.82
61676;BME280;47574;52.090;5.244;2024-03-08T04:19:35;101643.0;;;8.07;49.82
61676;BME280;47574;52.090;5.244;2024-03-08T04:21:12;101648.0;;;7.97;49.84
61676;BME280;47574;52.090;5.244;2024-03-08T04:24:24;101647.0;;;7.99;49.67
61676;BME280;47574;52.090;5.244;2024-03-08T04:26:00;101643.0;;;8.06;49.52
61676;BME280;47574;52.090;5.244;2024-03-08T04:27:37;101643.0;;;7.99;49.71
61676;BME280;47574;52.090;5.244;2024-03-08T04:30:50;101643.0;;;7.86;49.79
61676;BME280;47574;52.090;5.244;2024-03-08T04:32:26;101642.0;;;8.02;49.41
61676;BME280;47574;52.090;5.244;2024-03-08T04:34:02;101642.0;;;8.09;49.46
61676;BME280;47574;52.090;5.244;2024-03-08T04:37:15;101641.0;;;8.06;49.43
61676;BME280;47574;52.090;5.244;2024-03-08T04:38:51;101639.0;;;7.99;49.5
61676;BME280;47574;52.090;5.244;2024-03-08T04:40:27;101643.0;;;8.07;49.25
61676;BME280;47574;52.090;5.244;2024-03-08T04:43:41;101643.0;;;8.02;49.15
61676;BME280;47574;52.090;5.244;2024-03-08T04:45:17;101638.0;;;7.98;49.43
61676;BME280;47574;52.090;5.244;2024-03-08T04:46:53;101634.0;;;8.13;48.99
61676;BME280;47574;52.090;5.244;2024-03-08T04:48:29;101630.0;;;8.1;49.07
61676;BME280;47574;52.090;5.244;2024-03-08T04:51:43;101634.0;;;8.07;49.02
61676;BME280;47574;52.090;5.244;2024-03-08T04:53:19;101623.0;;;7.89;49.27
61676;BME280;47574;52.090;5.244;2024-03-08T04:54:55;101626.0;;;7.94;49.27
61676;BME280;47574;52.090;5.244;2024-03-08T04:58:07;101619.0;;;7.88;49.42
61676;BME280;47574;52.090;5.244;2024-03-08T04:59:43;101623.0;;;7.96;49.08
61676;BME280;47574;52.090;5.244;2024-03-08T05:01:19;101622.0;;;7.94;49.0
61676;BME280;47574;52.090;5.244;2024-03-08T05:04:31;101620.0;;;7.85;49.21
61676;BME280;47574;52.090;5.244;2024-03-08T05:06:07;101625.0;;;7.94;49.16
61676;BME280;47574;52.090;5.244;2024-03-08T05:07:43;101621.0;;;7.88;49.25
61676;BME280;47574;52.090;5.244;2024-03-08T05:09:20;101619.0;;;7.95;48.93
61676;BME280;47574;52.090;5.244;2024-03-08T05:12:33;101616.0;;;7.85;49.16
61676;BME280;47574;52.090;5.244;2024-03-08T05:14:09;101614.0;;;7.9;49.17
61676;BME280;47574;52.090;5.244;2024-03-08T05:15:48;101611.0;;;7.87;49.14
61676;BME280;47574;52.090;5.244;2024-03-08T05:19:00;101612.0;;;7.82;49.12
61676;BME280;47574;52.090;5.244;2024-03-08T05:20:36;101610.0;;;7.75;49.27
61676;BME280;47574;52.090;5.244;2024-03-08T05:22:12;101612.0;;;7.77;49.12
61676;BME280;47574;52.090;5.244;2024-03-08T05:25:27;101608.0;;;7.82;49.25
61676;BME280;47574;52.090;5.244;2024-03-08T05:27:03;101610.0;;;7.69;49.56
61676;BME280;47574;52.090;5.244;2024-03-08T05:28:40;101609.0;;;7.9;49.04
61676;BME280;47574;52.090;5.244;2024-03-08T05:30:16;101607.0;;;7.85;48.94
61676;BME280;47574;52.090;5.244;2024-03-08T05:33:29;101609.0;;;7.81;48.99
61676;BME280;47574;52.090;5.244;2024-03-08T05:35:06;101611.0;;;7.92;48.79
61676;BME280;47574;52.090;5.244;2024-03-08T05:36:42;101605.0;;;7.94;48.71
61676;BME280;47574;52.090;5.244;2024-03-08T05:39:54;101609.0;;;7.76;49.09
61676;BME280;47574;52.090;5.244;2024-03-08T05:41:30;101606.0;;;7.81;48.94
61676;BME280;47574;52.090;5.244;2024-03-08T05:43:06;101607.0;;;7.83;48.87
61676;BME280;47574;52.090;5.244;2024-03-08T05:46:18;101605.0;;;7.89;48.73
61676;BME280;47574;52.090;5.244;2024-03-08T05:47:54;101603.0;;;7.65;49.19
61676;BME280;47574;52.090;5.244;2024-03-08T05:49:30;101600.0;;;7.78;48.92
61676;BME280;47574;52.090;5.244;2024-03-08T05:52:43;101599.0;;;7.82;48.87
61676;BME280;47574;52.090;5.244;2024-03-08T05:54:19;101599.0;;;7.75;48.93
61676;BME280;47574;52.090;5.244;2024-03-08T05:55:56;101596.0;;;7.84;48.85
61676;BME280;47574;52.090;5.244;2024-03-08T05:57:32;101590.0;;;7.71;49.02
61676;BME280;47574;52.090;5.244;2024-03-08T06:00:44;101589.0;;;7.74;48.93
61676;BME280;47574;52.090;5.244;2024-03-08T06:02:20;101587.0;;;7.64;49.19
61676;BME280;47574;52.090;5.244;2024-03-08T06:03:56;101584.0;;;7.77;48.99
61676;BME280;47574;52.090;5.244;2024-03-08T06:07:08;101583.0;;;7.72;49.03
61676;BME280;47574;52.090;5.244;2024-03-08T06:08:45;101578.0;;;7.84;48.9
61676;BME280;47574;52.090;5.244;2024-03-08T06:10:21;101581.0;;;7.77;48.82
61676;BME280;47574;52.090;5.244;2024-03-08T06:13:33;101580.0;;;7.68;49.03
61676;BME280;47574;52.090;5.244;2024-03-08T06:15:10;101580.0;;;7.65;49.07
61676;BME280;47574;52.090;5.244;2024-03-08T06:16:47;101581.0;;;7.59;49.23
61676;BME280;47574;52.090;5.244;2024-03-08T06:18:23;101582.0;;;7.6;49.07
61676;BME280;47574;52.090;5.244;2024-03-08T06:21:36;101583.0;;;7.59;49.26
61676;BME280;47574;52.090;5.244;2024-03-08T06:23:11;101578.0;;;7.6;49.05
61676;BME280;47574;52.090;5.244;2024-03-08T06:24:48;101578.0;;;7.53;49.41
61676;BME280;47574;52.090;5.244;2024-03-08T06:28:01;101582.0;;;7.67;49.07
61676;BME280;47574;52.090;5.244;2024-03-08T06:29:37;101580.0;;;7.69;49.04
61676;BME280;47574;52.090;5.244;2024-03-08T06:31:13;101580.0;;;7.66;49.09
61676;BME280;47574;52.090;5.244;2024-03-08T06:34:25;101574.0;;;7.63;49.08
61676;BME280;47574;52.090;5.244;2024-03-08T06:36:01;101577.0;;;7.62;49.22
61676;BME280;47574;52.090;5.244;2024-03-08T06:37:37;101578.0;;;7.66;49.24
61676;BME280;47574;52.090;5.244;2024-03-08T06:40:50;101576.0;;;7.59;49.24
61676;BME280;47574;52.090;5.244;2024-03-08T06:42:26;101572.0;;;7.59;49.19
61676;BME280;47574;52.090;5.244;2024-03-08T06:44:02;101573.0;;;7.7;49.13
61676;BME280;47574;52.090;5.244;2024-03-08T06:45:39;101570.0;;;7.77;49.06
61676;BME280;47574;52.090;5.244;2024-03-08T06:48:51;101569.0;;;7.71;48.87
61676;BME280;47574;52.090;5.244;2024-03-08T06:50:27;101568.0;;;7.68;48.96
61676;BME280;47574;52.090;5.244;2024-03-08T06:52:04;101568.0;;;7.69;48.89
61676;BME280;47574;52.090;5.244;2024-03-08T06:55:17;101567.0;;;7.75;48.79
61676;BME280;47574;52.090;5.244;2024-03-08T06:56:53;101566.0;;;7.6;49.1
61676;BME280;47574;52.090;5.244;2024-03-08T06:58:29;101570.0;;;7.6;49.0
61676;BME280;47574;52.090;5.244;2024-03-08T07:01:43;101569.0;;;7.58;49.2
61676;BME280;47574;52.090;5.244;2024-03-08T07:03:19;101569.0;;;7.71;48.94
61676;BME280;47574;52.090;5.244;2024-03-08T07:04:55;101565.0;;;7.89;48.75
61676;BME280;47574;52.090;5.244;2024-03-08T07:06:31;101563.0;;;8.05;48.27
61676;BME280;47574;52.090;5.244;2024-03-08T07:09:45;101565.0;;;7.95;48.41
61676;BME280;47574;52.090;5.244;2024-03-08T07:11:21;101562.0;;;7.94;48.44
61676;BME280;47574;52.090;5.244;2024-03-08T07:12:57;101555.0;;;7.92;48.37
61676;BME280;47574;52.090;5.244;2024-03-08T07:16:09;101558.0;;;8.02;48.44
61676;BME280;47574;52.090;5.244;2024-03-08T07:17:45;101561.0;;;7.99;48.38
61676;BME280;47574;52.090;5.244;2024-03-08T07:19:22;101552.0;;;8.03;48.26
61676;BME280;47574;52.090;5.244;2024-03-08T07:22:34;101558.0;;;7.99;48.95
61676;BME280;47574;52.090;5.244;2024-03-08T07:24:11;101556.0;;;7.85;48.55
61676;BME280;47574;52.090;5.244;2024-03-08T07:25:48;101558.0;;;8.06;48.4
61676;BME280;47574;52.090;5.244;2024-03-08T07:27:24;101551.0;;;8.06;48.26
61676;BME280;47574;52.090;5.244;2024-03-08T07:30:36;101548.0;;;8.1;48.22
61676;BME280;47574;52.090;5.244;2024-03-08T07:32:12;101553.0;;;8.05;48.3
61676;BME280;47574;52.090;5.244;2024-03-08T07:33:48;101546.0;;;8.24;47.96
61676;BME280;47574;52.090;5.244;2024-03-08T07:37:00;101543.0;;;8.16;47.87
61676;BME280;47574;52.090;5.244;2024-03-08T07:38:36;101539.0;;;8.19;47.76
61676;BME280;47574;52.090;5.244;2024-03-08T07:40:13;101541.0;;;8.49;47.3
61676;BME280;47574;52.090;5.244;2024-03-08T07:43:25;101536.0;;;8.42;47.43
61676;BME280;47574;52.090;5.244;2024-03-08T07:45:01;101531.0;;;8.42;47.36
61676;BME280;47574;52.090;5.244;2024-03-08T07:46:38;101531.0;;;8.39;47.45
61676;BME280;47574;52.090;5.244;2024-03-08T07:49:50;101530.0;;;8.64;47.18
61676;BME280;47574;52.090;5.244;2024-03-08T07:51:26;101530.0;;;8.73;46.92
61676;BME280;47574;52.090;5.244;2024-03-08T07:53:03;101530.0;;;8.61;46.98
61676;BME280;47574;52.090;5.244;2024-03-08T07:54:38;101527.0;;;8.75;46.81
61676;BME280;47574;52.090;5.244;2024-03-08T07:57:51;101517.0;;;8.81;46.82
61676;BME280;47574;52.090;5.244;2024-03-08T07:59:28;101518.0;;;8.73;46.79
61676;BME280;47574;52.090;5.244;2024-03-08T08:01:04;101520.0;;;8.74;47.08
61676;BME280;47574;52.090;5.244;2024-03-08T08:04:16;101518.0;;;8.72;46.72
61676;BME280;47574;52.090;5.244;2024-03-08T08:05:52;101510.0;;;8.8;46.7
61676;BME280;47574;52.090;5.244;2024-03-08T08:07:28;101509.0;;;9.06;46.19
61676;BME280;47574;52.090;5.244;2024-03-08T08:10:41;101509.0;;;9.22;46.08
61676;BME280;47574;52.090;5.244;2024-03-08T08:12:17;101513.0;;;8.98;46.38
61676;BME280;47574;52.090;5.244;2024-03-08T08:13:53;101510.0;;;8.96;46.42
61676;BME280;47574;52.090;5.244;2024-03-08T08:17:05;101514.0;;;9.03;46.27
61676;BME280;47574;52.090;5.244;2024-03-08T08:18:41;101505.0;;;9.06;46.08
61676;BME280;47574;52.090;5.244;2024-03-08T08:20:17;101505.0;;;9.17;46.0
61676;BME280;47574;52.090;5.244;2024-03-08T08:21:53;101494.0;;;9.34;45.73
61676;BME280;47574;52.090;5.244;2024-03-08T08:25:06;101494.0;;;9.32;46.0
61676;BME280;47574;52.090;5.244;2024-03-08T08:26:43;101493.0;;;9.38;45.58
61676;BME280;47574;52.090;5.244;2024-03-08T08:28:19;101493.0;;;9.5;45.49
61676;BME280;47574;52.090;5.244;2024-03-08T08:31:32;101490.0;;;9.51;45.51
61676;BME280;47574;52.090;5.244;2024-03-08T08:33:08;101487.0;;;9.4;45.45
61676;BME280;47574;52.090;5.244;2024-03-08T08:34:44;101484.0;;;9.56;45.05
61676;BME280;47574;52.090;5.244;2024-03-08T08:37:56;101481.0;;;9.66;45.06
61676;BME280;47574;52.090;5.244;2024-03-08T08:39:33;101481.0;;;9.69;44.73
61676;BME280;47574;52.090;5.244;2024-03-08T08:41:09;101480.0;;;9.75;44.8
61676;BME280;47574;52.090;5.244;2024-03-08T08:42:45;101475.0;;;9.73;44.76
61676;BME280;47574;52.090;5.244;2024-03-08T08:45:57;101475.0;;;9.81;44.97
61676;BME280;47574;52.090;5.244;2024-03-08T08:47:34;101471.0;;;9.98;44.51
61676;BME280;47574;52.090;5.244;2024-03-08T08:49:10;101466.0;;;10.07;44.61
61676;BME280;47574;52.090;5.244;2024-03-08T08:52:23;101464.0;;;10.14;44.43
61676;BME280;47574;52.090;5.244;2024-03-08T08:53:59;101466.0;;;10.23;44.13
61676;BME280;47574;52.090;5.244;2024-03-08T08:55:36;101456.0;;;10.11;44.1
61676;BME280;47574;52.090;5.244;2024-03-08T08:58:48;101457.0;;;10.23;43.88
61676;BME280;47574;52.090;5.244;2024-03-08T09:00:24;101447.0;;;10.32;44.07
61676;BME280;47574;52.090;5.244;2024-03-08T09:02:00;101449.0;;;10.55;43.56
61676;BME280;47574;52.090;5.244;2024-03-08T09:05:13;101449.0;;;10.53;43.51
61676;BME280;47574;52.090;5.244;2024-03-08T09:06:49;101443.0;;;10.52;43.6
61676;BME280;47574;52.090;5.244;2024-03-08T09:08:26;101449.0;;;10.73;42.98
61676;BME280;47574;52.090;5.244;2024-03-08T09:10:02;101445.0;;;10.62;43.26
61676;BME280;47574;52.090;5.244;2024-03-08T09:13:15;101441.0;;;10.64;42.91
61676;BME280;47574;52.090;5.244;2024-03-08T09:14:51;101444.0;;;10.86;42.86
61676;BME280;47574;52.090;5.244;2024-03-08T09:16:28;101440.0;;;10.71;43.07
61676;BME280;47574;52.090;5.244;2024-03-08T09:19:41;101435.0;;;10.87;43.11
61676;BME280;47574;52.090;5.244;2024-03-08T09:21:17;101432.0;;;10.9;42.66
61676;BME280;47574;52.090;5.244;2024-03-08T09:22:53;101422.0;;;10.87;42.7
61676;BME280;47574;52.090;5.244;2024-03-08T09:26:06;101424.0;;;11.1;42.42
61676;BME280;47574;52.090;5.244;2024-03-08T09:27:42;101422.0;;;11.06;42.51
61676;BME280;47574;52.090;5.244;2024-03-08T09:29:18;101420.0;;;11.09;42.48
61676;BME280;47574;52.090;5.244;2024-03-08T09:30:54;101415.0;;;11.2;42.36
61676;BME280;47574;52.090;5.244;2024-03-08T09:34:06;101418.0;;;11.2;42.04
61676;BME280;47574;52.090;5.244;2024-03-08T09:35:42;101411.0;;;11.28;42.12
61676;BME280;47574;52.090;5.244;2024-03-08T09:37:18;101408.0;;;11.28;41.94
61676;BME280;47574;52.090;5.244;2024-03-08T09:40:31;101408.0;;;11.36;41.8
61676;BME280;47574;52.090;5.244;2024-03-08T09:42:07;101403.0;;;11.27;41.67
61676;BME280;47574;52.090;5.244;2024-03-08T09:43:45;101397.0;;;11.16;41.79
61676;BME280;47574;52.090;5.244;2024-03-08T09:46:58;101397.0;;;11.33;41.88
61676;BME280;47574;52.090;5.244;2024-03-08T09:48:35;101389.0;;;11.41;41.68
61676;BME280;47574;52.090;5.244;2024-03-08T09:50:12;101380.0;;;11.46;41.48
61676;BME280;47574;52.090;5.244;2024-03-08T09:51:50;101384.0;;;11.44;41.59
61676;BME280;47574;52.090;5.244;2024-03-08T09:55:04;101380.0;;;11.57;41.51
61676;BME280;47574;52.090;5.244;2024-03-08T09:56:40;101378.0;;;11.65;41.23
61676;BME280;47574;52.090;5.244;2024-03-08T09:58:18;101367.0;;;11.82;41.16
61676;BME280;47574;52.090;5.244;2024-03-08T10:01:31;101369.0;;;11.66;41.14
61676;BME280;47574;52.090;5.244;2024-03-08T10:03:06;101366.0;;;11.67;41.37
61676;BME280;47574;52.090;5.244;2024-03-08T10:04:43;101366.0;;;11.97;40.92
61676;BME280;47574;52.090;5.244;2024-03-08T10:07:59;101364.0;;;11.76;41.0
61676;BME280;47574;52.090;5.244;2024-03-08T10:09:35;101358.0;;;12.04;40.67
61676;BME280;47574;52.090;5.244;2024-03-08T10:11:11;101347.0;;;12.2;40.49
61676;BME280;47574;52.090;5.244;2024-03-08T10:12:48;101351.0;;;12.46;40.28
61676;BME280;47574;52.090;5.244;2024-03-08T10:16:01;101341.0;;;12.25;40.15
61676;BME280;47574;52.090;5.244;2024-03-08T10:17:39;101338.0;;;12.2;39.99
61676;BME280;47574;52.090;5.244;2024-03-08T10:19:16;101335.0;;;12.31;40.18
61676;BME280;47574;52.090;5.244;2024-03-08T10:22:41;101332.0;;;12.4;39.99
61676;BME280;47574;52.090;5.244;2024-03-08T10:24:17;101315.0;;;12.23;40.17
61676;BME280;47574;52.090;5.244;2024-03-08T10:25:53;101318.0;;;12.56;39.85
61676;BME280;47574;52.090;5.244;2024-03-08T10:27:29;101315.0;;;12.5;39.93
61676;BME280;47574;52.090;5.244;2024-03-08T10:30:47;101313.0;;;12.56;39.74
61676;BME280;47574;52.090;5.244;2024-03-08T10:32:23;101312.0;;;12.68;39.71
61676;BME280;47574;52.090;5.244;2024-03-08T10:33:59;101300.0;;;12.66;39.36
61676;BME280;47574;52.090;5.244;2024-03-08T10:37:15;101301.0;;;12.63;39.42
61676;BME280;47574;52.090;5.244;2024-03-08T10:38:51;101294.0;;;12.8;39.33
61676;BME280;47574;52.090;5.244;2024-03-08T10:40:29;101280.0;;;12.78;39.14
61676;BME280;47574;52.090;5.244;2024-03-08T10:42:08;101280.0;;;13.14;39.39
61676;BME280;47574;52.090;5.244;2024-03-08T10:46:01;101272.0;;;13.06;38.64
61676;BME280;47574;52.090;5.244;2024-03-08T10:47:48;101269.0;;;13.01;38.46
61676;BME280;47574;52.090;5.244;2024-03-08T10:49:30;101269.0;;;13.06;38.26
61676;BME280;47574;52.090;5.244;2024-03-08T10:51:09;101268.0;;;12.99;38.35
61676;BME280;47574;52.090;5.244;2024-03-08T10:52:49;101255.0;;;13.23;38.96
61676;BME280;47574;52.090;5.244;2024-03-08T10:56:04;101258.0;;;13.32;38.31
61676;BME280;47574;52.090;5.244;2024-03-08T10:57:40;101250.0;;;13.39;38.25
61676;BME280;47574;52.090;5.244;2024-03-08T10:59:17;101249.0;;;13.22;38.35
61676;BME280;47574;52.090;5.244;2024-03-08T11:00:54;101245.0;;;13.27;38.33
61676;BME280;47574;52.090;5.244;2024-03-08T11:04:07;101243.0;;;13.3;38.37
61676;BME280;47574;52.090;5.244;2024-03-08T11:05:43;101246.0;;;13.46;38.42
61676;BME280;47574;52.090;5.244;2024-03-08T11:07:20;101235.0;;;13.79;37.19
61676;BME280;47574;52.090;5.244;2024-03-08T11:10:32;101233.0;;;14.09;37.03
61676;BME280;47574;52.090;5.244;2024-03-08T11:12:23;101226.0;;;13.84;37.04
61676;BME280;47574;52.090;5.244;2024-03-08T11:14:00;101220.0;;;13.5;37.4